sensor_id;sensor_type;location;lat;lon;timestamp;pressure;altitude;pressure_sealevel;temperature;humidity
73171;BME280;61381;50.118;19.962;2023-02-12T00:01:48;99648.78;;;0.99;100.00
73171;BME280;61381;50.118;19.962;2023-02-12T00:06:49;99653.66;;;0.96;100.00
73171;BME280;61381;50.118;19.962;2023-02-12T00:11:51;99655.69;;;0.94;100.00
73171;BME280;61381;50.118;19.962;2023-02-12T00:16:53;99659.34;;;0.99;100.00
73171;BME280;61381;50.118;19.962;2023-02-12T00:21:54;99666.69;;;1.04;100.00
73171;BME280;61381;50.118;19.962;2023-02-12T00:26:56;99655.31;;;1.03;100.00
73171;BME280;61381;50.118;19.962;2023-02-12T00:31:57;99665.88;;;1.03;100.00
73171;BME280;61381;50.118;19.962;2023-02-12T00:36:58;99666.69;;;1.04;100.00
73171;BME280;61381;50.118;19.962;2023-02-12T00:42:01;99661.28;;;1.12;100.00
73171;BME280;61381;50.118;19.962;2023-02-12T00:47:02;99666.38;;;1.20;100.00
73171;BME280;61381;50.118;19.962;2023-02-12T00:52:04;99670.13;;;1.33;100.00
73171;BME280;61381;50.118;19.962;2023-02-12T00:57:06;99662.84;;;1.35;100.00
73171;BME280;61381;50.118;19.962;2023-02-12T01:02:07;99678.22;;;1.31;100.00
73171;BME280;61381;50.118;19.962;2023-02-12T01:07:08;99672.56;;;1.34;100.00
73171;BME280;61381;50.118;19.962;2023-02-12T01:12:11;99674.03;;;1.43;100.00
73171;BME280;61381;50.118;19.962;2023-02-12T01:17:12;99677.13;;;1.47;100.00
73171;BME280;61381;50.118;19.962;2023-02-12T01:22:13;99688.84;;;1.38;100.00
73171;BME280;61381;50.118;19.962;2023-02-12T01:27:15;99697.59;;;1.45;100.00
73171;BME280;61381;50.118;19.962;2023-02-12T01:32:17;99700.03;;;1.47;100.00
73171;BME280;61381;50.118;19.962;2023-02-12T01:37:18;99705.78;;;1.50;100.00
73171;BME280;61381;50.118;19.962;2023-02-12T01:42:20;99716.34;;;1.50;100.00
73171;BME280;61381;50.118;19.962;2023-02-12T01:47:21;99714.88;;;1.41;100.00
73171;BME280;61381;50.118;19.962;2023-02-12T01:52:26;99722.00;;;1.47;100.00
73171;BME280;61381;50.118;19.962;2023-02-12T01:57:31;99726.84;;;1.43;100.00
73171;BME280;61381;50.118;19.962;2023-02-12T02:02:34;99738.66;;;1.48;100.00
73171;BME280;61381;50.118;19.962;2023-02-12T02:07:35;99738.56;;;1.63;100.00
73171;BME280;61381;50.118;19.962;2023-02-12T02:12:38;99743.34;;;1.52;100.00
73171;BME280;61381;50.118;19.962;2023-02-12T02:17:50;99750.13;;;1.62;100.00
73171;BME280;61381;50.118;19.962;2023-02-12T02:23:07;99758.25;;;1.67;100.00
73171;BME280;61381;50.118;19.962;2023-02-12T02:28:23;99776.72;;;1.60;100.00
73171;BME280;61381;50.118;19.962;2023-02-12T02:33:35;99784.53;;;1.47;100.00
73171;BME280;61381;50.118;19.962;2023-02-12T02:38:40;99796.19;;;1.59;100.00
73171;BME280;61381;50.118;19.962;2023-02-12T02:43:44;99804.38;;;1.64;100.00
73171;BME280;61381;50.118;19.962;2023-02-12T02:48:51;99799.88;;;1.58;100.00
73171;BME280;61381;50.118;19.962;2023-02-12T02:53:56;99815.59;;;1.73;100.00
73171;BME280;61381;50.118;19.962;2023-02-12T02:59:03;99808.50;;;1.73;100.00
73171;BME280;61381;50.118;19.962;2023-02-12T03:04:09;99823.06;;;1.63;100.00
73171;BME280;61381;50.118;19.962;2023-02-12T03:09:15;99826.31;;;1.65;100.00
73171;BME280;61381;50.118;19.962;2023-02-12T03:14:21;99832.13;;;1.82;100.00
73171;BME280;61381;50.118;19.962;2023-02-12T03:19:28;99842.19;;;1.71;100.00
73171;BME280;61381;50.118;19.962;2023-02-12T03:24:32;99864.56;;;1.69;100.00
73171;BME280;61381;50.118;19.962;2023-02-12T03:29:36;99858.34;;;1.55;100.00
73171;BME280;61381;50.118;19.962;2023-02-12T03:34:46;99864.94;;;1.66;100.00
73171;BME280;61381;50.118;19.962;2023-02-12T03:39:53;99880.91;;;1.57;100.00
73171;BME280;61381;50.118;19.962;2023-02-12T03:45:00;99881.59;;;1.66;100.00
73171;BME280;61381;50.118;19.962;2023-02-12T03:50:10;99886.28;;;1.71;100.00
73171;BME280;61381;50.118;19.962;2023-02-12T03:55:13;99890.09;;;1.62;100.00
73171;BME280;61381;50.118;19.962;2023-02-12T04:00:17;99916.19;;;1.50;100.00
73171;BME280;61381;50.118;19.962;2023-02-12T04:05:22;99925.13;;;1.49;100.00
73171;BME280;61381;50.118;19.962;2023-02-12T04:10:29;99938.13;;;1.50;100.00
73171;BME280;61381;50.118;19.962;2023-02-12T04:15:42;99935.69;;;1.49;100.00
73171;BME280;61381;50.118;19.962;2023-02-12T04:20:56;99953.84;;;1.58;100.00
73171;BME280;61381;50.118;19.962;2023-02-12T04:26:08;99969.56;;;1.45;100.00
73171;BME280;61381;50.118;19.962;2023-02-12T04:31:19;99977.63;;;1.58;100.00
73171;BME280;61381;50.118;19.962;2023-02-12T04:36:27;99972.00;;;1.47;100.00
73171;BME280;61381;50.118;19.962;2023-02-12T04:41:31;99984.91;;;1.35;100.00
73171;BME280;61381;50.118;19.962;2023-02-12T04:46:33;99999.91;;;1.34;100.00
73171;BME280;61381;50.118;19.962;2023-02-12T04:51:35;100014.03;;;1.27;100.00
73171;BME280;61381;50.118;19.962;2023-02-12T04:56:36;100024.78;;;1.10;100.00
73171;BME280;61381;50.118;19.962;2023-02-12T05:01:39;100034.91;;;1.06;100.00
73171;BME280;61381;50.118;19.962;2023-02-12T05:06:43;100039.75;;;1.03;100.00
73171;BME280;61381;50.118;19.962;2023-02-12T05:11:44;100051.66;;;1.14;100.00
73171;BME280;61381;50.118;19.962;2023-02-12T05:16:46;100055.75;;;1.01;100.00
73171;BME280;61381;50.118;19.962;2023-02-12T05:21:50;100061.56;;;0.97;100.00
73171;BME280;61381;50.118;19.962;2023-02-12T05:26:51;100060.94;;;0.80;100.00
73171;BME280;61381;50.118;19.962;2023-02-12T05:31:52;100072.44;;;0.64;100.00
73171;BME280;61381;50.118;19.962;2023-02-12T05:36:54;100085.59;;;0.49;100.00
73171;BME280;61381;50.118;19.962;2023-02-12T05:41:55;100096.94;;;0.34;100.00
73171;BME280;61381;50.118;19.962;2023-02-12T05:46:57;100106.63;;;0.19;100.00
73171;BME280;61381;50.118;19.962;2023-02-12T05:51:59;100117.16;;;0.19;100.00
73171;BME280;61381;50.118;19.962;2023-02-12T05:57:00;100125.50;;;-0.01;100.00
73171;BME280;61381;50.118;19.962;2023-02-12T06:02:01;100135.31;;;-0.17;100.00
73171;BME280;61381;50.118;19.962;2023-02-12T06:07:04;100136.47;;;-0.20;100.00
73171;BME280;61381;50.118;19.962;2023-02-12T06:12:05;100146.16;;;-0.12;100.00
73171;BME280;61381;50.118;19.962;2023-02-12T06:17:06;100155.47;;;-0.02;100.00
73171;BME280;61381;50.118;19.962;2023-02-12T06:22:09;100160.91;;;-0.03;100.00
73171;BME280;61381;50.118;19.962;2023-02-12T06:27:10;100172.91;;;0.08;100.00
73171;BME280;61381;50.118;19.962;2023-02-12T06:32:11;100181.50;;;0.02;100.00
73171;BME280;61381;50.118;19.962;2023-02-12T06:37:13;100177.38;;;-0.01;100.00
73171;BME280;61381;50.118;19.962;2023-02-12T06:42:15;100190.56;;;-0.01;100.00
73171;BME280;61381;50.118;19.962;2023-02-12T06:47:16;100191.50;;;0.06;100.00
73171;BME280;61381;50.118;19.962;2023-02-12T06:52:18;100198.66;;;0.21;100.00
73171;BME280;61381;50.118;19.962;2023-02-12T06:57:19;100214.41;;;0.29;100.00
73171;BME280;61381;50.118;19.962;2023-02-12T07:02:20;100210.84;;;0.22;100.00
73171;BME280;61381;50.118;19.962;2023-02-12T07:07:23;100216.03;;;0.07;100.00
73171;BME280;61381;50.118;19.962;2023-02-12T07:12:24;100234.00;;;0.03;100.00
73171;BME280;61381;50.118;19.962;2023-02-12T07:17:25;100238.88;;;0.14;100.00
73171;BME280;61381;50.118;19.962;2023-02-12T07:22:28;100238.72;;;0.16;100.00
73171;BME280;61381;50.118;19.962;2023-02-12T07:27:29;100256.00;;;0.19;100.00
73171;BME280;61381;50.118;19.962;2023-02-12T07:32:31;100268.59;;;0.31;100.00
73171;BME280;61381;50.118;19.962;2023-02-12T07:37:34;100277.16;;;0.33;100.00
73171;BME280;61381;50.118;19.962;2023-02-12T07:42:35;100276.97;;;0.43;100.00
73171;BME280;61381;50.118;19.962;2023-02-12T07:47:36;100283.66;;;0.54;100.00
73171;BME280;61381;50.118;19.962;2023-02-12T07:52:38;100303.53;;;0.65;100.00
73171;BME280;61381;50.118;19.962;2023-02-12T07:57:39;100301.97;;;0.47;100.00
73171;BME280;61381;50.118;19.962;2023-02-12T08:02:40;100313.13;;;0.58;100.00
73171;BME280;61381;50.118;19.962;2023-02-12T08:07:43;100317.84;;;0.70;100.00
73171;BME280;61381;50.118;19.962;2023-02-12T08:12:44;100320.31;;;0.72;100.00
73171;BME280;61381;50.118;19.962;2023-02-12T08:17:45;100330.50;;;0.75;100.00
73171;BME280;61381;50.118;19.962;2023-02-12T08:22:48;100328.78;;;0.82;100.00
73171;BME280;61381;50.118;19.962;2023-02-12T08:27:49;100331.06;;;0.94;100.00
73171;BME280;61381;50.118;19.962;2023-02-12T08:32:50;100334.66;;;0.69;100.00
73171;BME280;61381;50.118;19.962;2023-02-12T08:37:52;100331.66;;;0.41;100.00
73171;BME280;61381;50.118;19.962;2023-02-12T08:42:54;100352.22;;;0.46;100.00
73171;BME280;61381;50.118;19.962;2023-02-12T08:47:55;100346.88;;;0.62;100.00
73171;BME280;61381;50.118;19.962;2023-02-12T08:52:57;100351.25;;;0.78;100.00
73171;BME280;61381;50.118;19.962;2023-02-12T08:57:58;100364.97;;;0.74;100.00
73171;BME280;61381;50.118;19.962;2023-02-12T09:02:59;100371.69;;;0.76;100.00
73171;BME280;61381;50.118;19.962;2023-02-12T09:08:02;100383.28;;;0.67;100.00
73171;BME280;61381;50.118;19.962;2023-02-12T09:13:03;100394.22;;;0.56;100.00
73171;BME280;61381;50.118;19.962;2023-02-12T09:18:05;100399.44;;;0.64;100.00
73171;BME280;61381;50.118;19.962;2023-02-12T09:23:08;100407.75;;;0.84;100.00
73171;BME280;61381;50.118;19.962;2023-02-12T09:28:10;100407.41;;;1.18;100.00
73171;BME280;61381;50.118;19.962;2023-02-12T09:33:12;100416.63;;;0.91;100.00
73171;BME280;61381;50.118;19.962;2023-02-12T09:38:14;100423.50;;;1.00;100.00
73171;BME280;61381;50.118;19.962;2023-02-12T09:43:17;100424.31;;;1.55;100.00
73171;BME280;61381;50.118;19.962;2023-02-12T09:48:36;100428.25;;;1.59;100.00
73171;BME280;61381;50.118;19.962;2023-02-12T09:53:44;100429.41;;;1.80;100.00
73171;BME280;61381;50.118;19.962;2023-02-12T09:58:50;100424.38;;;1.70;100.00
73171;BME280;61381;50.118;19.962;2023-02-12T10:03:52;100441.44;;;1.83;100.00
73171;BME280;61381;50.118;19.962;2023-02-12T10:09:04;100430.50;;;1.16;100.00
73171;BME280;61381;50.118;19.962;2023-02-12T10:14:20;100435.25;;;1.21;100.00
73171;BME280;61381;50.118;19.962;2023-02-12T10:19:41;100445.50;;;1.47;100.00
73171;BME280;61381;50.118;19.962;2023-02-12T10:25:08;100460.41;;;1.86;100.00
73171;BME280;61381;50.118;19.962;2023-02-12T10:30:18;100453.00;;;2.49;100.00
73171;BME280;61381;50.118;19.962;2023-02-12T10:35:21;100456.47;;;2.80;100.00
73171;BME280;61381;50.118;19.962;2023-02-12T10:40:26;100465.50;;;3.37;96.24
73171;BME280;61381;50.118;19.962;2023-02-12T10:45:30;100454.22;;;2.47;100.00
73171;BME280;61381;50.118;19.962;2023-02-12T10:50:39;100449.47;;;2.42;100.00
73171;BME280;61381;50.118;19.962;2023-02-12T10:55:43;100445.50;;;3.34;97.71
73171;BME280;61381;50.118;19.962;2023-02-12T11:00:45;100447.78;;;3.01;98.98
73171;BME280;61381;50.118;19.962;2023-02-12T11:05:46;100446.41;;;3.05;98.37
73171;BME280;61381;50.118;19.962;2023-02-12T11:10:49;100439.72;;;3.09;96.94
73171;BME280;61381;50.118;19.962;2023-02-12T11:15:52;100447.66;;;2.73;98.91
73171;BME280;61381;50.118;19.962;2023-02-12T11:20:56;100445.50;;;2.23;100.00
73171;BME280;61381;50.118;19.962;2023-02-12T11:26:02;100454.28;;;2.54;100.00
73171;BME280;61381;50.118;19.962;2023-02-12T11:31:20;100450.31;;;2.05;100.00
73171;BME280;61381;50.118;19.962;2023-02-12T11:36:24;100442.72;;;1.64;100.00
73171;BME280;61381;50.118;19.962;2023-02-12T11:41:32;100444.13;;;1.74;100.00
73171;BME280;61381;50.118;19.962;2023-02-12T11:46:34;100446.41;;;2.01;100.00
73171;BME280;61381;50.118;19.962;2023-02-12T11:51:36;100445.84;;;1.90;100.00
73171;BME280;61381;50.118;19.962;2023-02-12T11:56:45;100442.44;;;2.35;100.00
73171;BME280;61381;50.118;19.962;2023-02-12T12:01:47;100440.69;;;2.72;100.00
73171;BME280;61381;50.118;19.962;2023-02-12T12:06:53;100452.19;;;2.64;100.00
73171;BME280;61381;50.118;19.962;2023-02-12T12:12:03;100431.22;;;2.62;100.00
73171;BME280;61381;50.118;19.962;2023-02-12T12:17:13;100438.13;;;2.04;100.00
73171;BME280;61381;50.118;19.962;2023-02-12T12:22:27;100425.31;;;1.92;100.00
73171;BME280;61381;50.118;19.962;2023-02-12T12:27:36;100422.31;;;1.95;100.00
73171;BME280;61381;50.118;19.962;2023-02-12T12:32:42;100429.34;;;2.03;100.00
73171;BME280;61381;50.118;19.962;2023-02-12T12:37:47;100428.09;;;1.99;100.00
73171;BME280;61381;50.118;19.962;2023-02-12T12:43:02;100418.25;;;2.53;100.00
73171;BME280;61381;50.118;19.962;2023-02-12T12:48:15;100429.06;;;3.02;100.00
73171;BME280;61381;50.118;19.962;2023-02-12T12:53:28;100409.59;;;2.59;100.00
73171;BME280;61381;50.118;19.962;2023-02-12T12:58:45;100426.19;;;2.82;100.00
73171;BME280;61381;50.118;19.962;2023-02-12T13:04:08;100431.06;;;1.96;100.00
73171;BME280;61381;50.118;19.962;2023-02-12T13:09:31;100436.16;;;2.21;100.00
73171;BME280;61381;50.118;19.962;2023-02-12T13:14:42;100427.91;;;2.01;100.00
73171;BME280;61381;50.118;19.962;2023-02-12T13:19:53;100441.09;;;1.86;100.00
73171;BME280;61381;50.118;19.962;2023-02-12T13:25:03;100439.22;;;2.09;100.00
73171;BME280;61381;50.118;19.962;2023-02-12T13:30:18;100433.66;;;2.04;100.00
73171;BME280;61381;50.118;19.962;2023-02-12T13:35:21;100430.31;;;2.55;100.00
73171;BME280;61381;50.118;19.962;2023-02-12T13:40:25;100433.94;;;2.69;100.00
73171;BME280;61381;50.118;19.962;2023-02-12T13:45:35;100433.22;;;2.30;100.00
73171;BME280;61381;50.118;19.962;2023-02-12T13:50:44;100439.88;;;2.56;100.00
73171;BME280;61381;50.118;19.962;2023-02-12T13:55:59;100438.50;;;2.60;100.00
73171;BME280;61381;50.118;19.962;2023-02-12T14:01:04;100438.16;;;2.63;100.00
73171;BME280;61381;50.118;19.962;2023-02-12T14:06:12;100436.50;;;2.62;100.00
73171;BME280;61381;50.118;19.962;2023-02-12T14:11:17;100436.78;;;2.67;100.00
73171;BME280;61381;50.118;19.962;2023-02-12T14:16:37;100444.44;;;2.62;100.00
73171;BME280;61381;50.118;19.962;2023-02-12T14:21:38;100447.63;;;2.43;100.00
73171;BME280;61381;50.118;19.962;2023-02-12T14:26:39;100432.13;;;2.40;100.00
73171;BME280;61381;50.118;19.962;2023-02-12T14:31:46;100416.63;;;2.22;100.00
73171;BME280;61381;50.118;19.962;2023-02-12T14:42:54;100417.34;;;2.16;100.00
73171;BME280;61381;50.118;19.962;2023-02-12T14:54:03;100422.31;;;1.95;100.00
73171;BME280;61381;50.118;19.962;2023-02-12T14:59:14;100428.41;;;1.81;100.00
73171;BME280;61381;50.118;19.962;2023-02-12T15:04:23;100435.53;;;1.95;100.00
73171;BME280;61381;50.118;19.962;2023-02-12T15:09:30;100437.75;;;2.22;100.00
73171;BME280;61381;50.118;19.962;2023-02-12T15:14:34;100444.16;;;2.57;100.00
73171;BME280;61381;50.118;19.962;2023-02-12T15:19:39;100442.53;;;2.71;100.00
73171;BME280;61381;50.118;19.962;2023-02-12T15:24:44;100445.25;;;2.63;100.00
73171;BME280;61381;50.118;19.962;2023-02-12T15:29:46;100448.81;;;2.55;100.00
73171;BME280;61381;50.118;19.962;2023-02-12T15:34:49;100448.88;;;2.17;100.00
73171;BME280;61381;50.118;19.962;2023-02-12T15:39:54;100450.31;;;1.67;100.00
73171;BME280;61381;50.118;19.962;2023-02-12T15:45:16;100451.53;;;1.33;100.00
73171;BME280;61381;50.118;19.962;2023-02-12T15:50:18;100450.41;;;0.96;100.00
73171;BME280;61381;50.118;19.962;2023-02-12T15:55:22;100461.38;;;0.76;100.00
73171;BME280;61381;50.118;19.962;2023-02-12T16:00:31;100464.41;;;0.65;100.00
73171;BME280;61381;50.118;19.962;2023-02-12T16:05:37;100451.31;;;0.80;100.00
73171;BME280;61381;50.118;19.962;2023-02-12T16:10:43;100450.53;;;0.71;100.00
73171;BME280;61381;50.118;19.962;2023-02-12T16:16:02;100466.78;;;0.43;100.00
73171;BME280;61381;50.118;19.962;2023-02-12T16:21:06;100469.75;;;0.24;100.00
73171;BME280;61381;50.118;19.962;2023-02-12T16:26:17;100476.69;;;0.16;100.00
73171;BME280;61381;50.118;19.962;2023-02-12T16:31:20;100485.25;;;0.10;100.00
73171;BME280;61381;50.118;19.962;2023-02-12T16:36:30;100489.22;;;0.14;100.00
73171;BME280;61381;50.118;19.962;2023-02-12T16:41:34;100503.06;;;0.08;100.00
73171;BME280;61381;50.118;19.962;2023-02-12T16:46:52;100501.56;;;-0.03;100.00
73171;BME280;61381;50.118;19.962;2023-02-12T16:52:19;100498.28;;;-0.21;100.00
73171;BME280;61381;50.118;19.962;2023-02-12T16:57:23;100494.28;;;-0.42;100.00
73171;BME280;61381;50.118;19.962;2023-02-12T17:02:24;100493.44;;;-0.59;100.00
73171;BME280;61381;50.118;19.962;2023-02-12T17:07:25;100509.53;;;-0.70;100.00
73171;BME280;61381;50.118;19.962;2023-02-12T17:12:28;100496.78;;;-0.99;100.00
73171;BME280;61381;50.118;19.962;2023-02-12T17:17:29;100501.97;;;-1.16;100.00
73171;BME280;61381;50.118;19.962;2023-02-12T17:22:30;100517.56;;;-1.22;100.00
73171;BME280;61381;50.118;19.962;2023-02-12T17:27:33;100518.03;;;-1.27;100.00
73171;BME280;61381;50.118;19.962;2023-02-12T17:32:34;100497.19;;;-1.20;100.00
73171;BME280;61381;50.118;19.962;2023-02-12T17:37:35;100501.97;;;-1.16;100.00
73171;BME280;61381;50.118;19.962;2023-02-12T17:42:37;100486.31;;;-1.26;100.00
73171;BME280;61381;50.118;19.962;2023-02-12T17:47:38;100490.56;;;-1.24;100.00
73171;BME280;61381;50.118;19.962;2023-02-12T17:52:40;100490.56;;;-1.33;100.00
73171;BME280;61381;50.118;19.962;2023-02-12T17:57:43;100483.53;;;-1.50;100.00
73171;BME280;61381;50.118;19.962;2023-02-12T18:02:44;100486.09;;;-1.67;100.00
73171;BME280;61381;50.118;19.962;2023-02-12T18:07:45;100490.03;;;-1.89;100.00
73171;BME280;61381;50.118;19.962;2023-02-12T18:12:48;100497.91;;;-2.07;100.00
73171;BME280;61381;50.118;19.962;2023-02-12T18:17:49;100497.56;;;-2.12;100.00
73171;BME280;61381;50.118;19.962;2023-02-12T18:22:50;100497.97;;;-2.25;100.00
73171;BME280;61381;50.118;19.962;2023-02-12T18:27:53;100505.06;;;-2.17;100.00
73171;BME280;61381;50.118;19.962;2023-02-12T18:32:54;100493.59;;;-2.16;100.00
73171;BME280;61381;50.118;19.962;2023-02-12T18:37:55;100489.16;;;-1.98;100.00
73171;BME280;61381;50.118;19.962;2023-02-12T18:42:57;100492.22;;;-2.02;100.00
73171;BME280;61381;50.118;19.962;2023-02-12T18:47:58;100484.47;;;-1.86;100.00
73171;BME280;61381;50.118;19.962;2023-02-12T18:53:00;100491.72;;;-1.80;100.00
73171;BME280;61381;50.118;19.962;2023-02-12T18:58:05;100491.44;;;-1.76;100.00
73171;BME280;61381;50.118;19.962;2023-02-12T19:03:06;100486.25;;;-1.68;100.00
73171;BME280;61381;50.118;19.962;2023-02-12T19:08:07;100483.06;;;-1.46;100.00
73171;BME280;61381;50.118;19.962;2023-02-12T19:13:10;100478.69;;;-1.37;100.00
73171;BME280;61381;50.118;19.962;2023-02-12T19:18:11;100485.84;;;-1.47;100.00
73171;BME280;61381;50.118;19.962;2023-02-12T19:23:12;100482.97;;;-1.36;100.00
73171;BME280;61381;50.118;19.962;2023-02-12T19:28:15;100485.06;;;-1.39;100.00
73171;BME280;61381;50.118;19.962;2023-02-12T19:33:16;100481.38;;;-1.55;100.00
73171;BME280;61381;50.118;19.962;2023-02-12T19:38:17;100470.31;;;-1.67;100.00
73171;BME280;61381;50.118;19.962;2023-02-12T19:43:21;100459.66;;;-1.91;100.00
73171;BME280;61381;50.118;19.962;2023-02-12T19:48:22;100463.72;;;-1.97;100.00
73171;BME280;61381;50.118;19.962;2023-02-12T19:53:23;100470.91;;;-1.99;100.00
73171;BME280;61381;50.118;19.962;2023-02-12T19:58:26;100464.53;;;-1.97;100.00
73171;BME280;61381;50.118;19.962;2023-02-12T20:03:28;100465.41;;;-1.88;100.00
73171;BME280;61381;50.118;19.962;2023-02-12T20:08:30;100474.66;;;-1.84;100.00
73171;BME280;61381;50.118;19.962;2023-02-12T20:13:33;100467.63;;;-1.75;100.00
73171;BME280;61381;50.118;19.962;2023-02-12T20:18:34;100470.97;;;-1.65;100.00
73171;BME280;61381;50.118;19.962;2023-02-12T20:23:36;100470.38;;;-1.85;100.00
73171;BME280;61381;50.118;19.962;2023-02-12T20:28:39;100476.22;;;-1.91;100.00
73171;BME280;61381;50.118;19.962;2023-02-12T20:33:41;100476.69;;;-1.95;100.00
73171;BME280;61381;50.118;19.962;2023-02-12T20:38:42;100476.91;;;-2.07;100.00
73171;BME280;61381;50.118;19.962;2023-02-12T20:43:45;100477.84;;;-2.16;100.00
73171;BME280;61381;50.118;19.962;2023-02-12T20:48:46;100472.50;;;-2.06;100.00
73171;BME280;61381;50.118;19.962;2023-02-12T20:53:48;100460.34;;;-2.07;100.00
73171;BME280;61381;50.118;19.962;2023-02-12T20:58:51;100464.66;;;-2.24;100.00
73171;BME280;61381;50.118;19.962;2023-02-12T21:03:54;100470.59;;;-2.40;100.00
73171;BME280;61381;50.118;19.962;2023-02-12T21:08:55;100468.84;;;-2.31;100.00
73171;BME280;61381;50.118;19.962;2023-02-12T21:13:58;100461.78;;;-2.13;100.00
73171;BME280;61381;50.118;19.962;2023-02-12T21:18:59;100465.72;;;-1.91;100.00
73171;BME280;61381;50.118;19.962;2023-02-12T21:24:02;100478.06;;;-1.65;100.00
73171;BME280;61381;50.118;19.962;2023-02-12T21:29:05;100485.53;;;-1.44;100.00
73171;BME280;61381;50.118;19.962;2023-02-12T21:34:08;100473.34;;;-1.19;100.00
73171;BME280;61381;50.118;19.962;2023-02-12T21:39:12;100483.59;;;-1.08;100.00
73171;BME280;61381;50.118;19.962;2023-02-12T21:44:17;100482.13;;;-1.02;100.00
73171;BME280;61381;50.118;19.962;2023-02-12T21:49:22;100476.72;;;-1.00;100.00
73171;BME280;61381;50.118;19.962;2023-02-12T21:54:23;100476.88;;;-0.94;100.00
73171;BME280;61381;50.118;19.962;2023-02-12T21:59:26;100480.69;;;-0.88;100.00
73171;BME280;61381;50.118;19.962;2023-02-12T22:04:27;100486.28;;;-0.91;100.00
73171;BME280;61381;50.118;19.962;2023-02-12T22:09:29;100485.31;;;-0.90;100.00
73171;BME280;61381;50.118;19.962;2023-02-12T22:14:31;100491.59;;;-0.75;100.00
73171;BME280;61381;50.118;19.962;2023-02-12T22:19:32;100493.75;;;-0.70;100.00
73171;BME280;61381;50.118;19.962;2023-02-12T22:24:33;100494.72;;;-0.71;100.00
73171;BME280;61381;50.118;19.962;2023-02-12T22:29:36;100497.34;;;-0.79;100.00
73171;BME280;61381;50.118;19.962;2023-02-12T22:34:37;100502.94;;;-0.74;100.00
73171;BME280;61381;50.118;19.962;2023-02-12T22:39:38;100503.63;;;-0.64;100.00
73171;BME280;61381;50.118;19.962;2023-02-12T22:44:41;100501.69;;;-0.45;100.00
73171;BME280;61381;50.118;19.962;2023-02-12T22:49:42;100498.72;;;-0.50;100.00
73171;BME280;61381;50.118;19.962;2023-02-12T22:54:43;100495.09;;;-0.49;100.00
73171;BME280;61381;50.118;19.962;2023-02-12T22:59:46;100495.25;;;-0.59;100.00
73171;BME280;61381;50.118;19.962;2023-02-12T23:04:47;100496.22;;;-0.60;100.00
73171;BME280;61381;50.118;19.962;2023-02-12T23:09:48;100501.66;;;-0.70;100.00
73171;BME280;61381;50.118;19.962;2023-02-12T23:14:50;100486.63;;;-0.86;100.00
73171;BME280;61381;50.118;19.962;2023-02-12T23:19:51;100483.63;;;-0.99;100.00
73171;BME280;61381;50.118;19.962;2023-02-12T23:24:53;100480.13;;;-1.08;100.00
73171;BME280;61381;50.118;19.962;2023-02-12T23:29:55;100482.84;;;-1.26;100.00
73171;BME280;61381;50.118;19.962;2023-02-12T23:34:56;100480.63;;;-1.13;100.00
73171;BME280;61381;50.118;19.962;2023-02-12T23:39:57;100471.59;;;-1.10;100.00
73171;BME280;61381;50.118;19.962;2023-02-12T23:45:00;100481.31;;;-1.02;100.00
73171;BME280;61381;50.118;19.962;2023-02-12T23:50:01;100481.34;;;-0.86;100.00
73171;BME280;61381;50.118;19.962;2023-02-12T23:55:02;100485.16;;;-0.80;100.00
